createdAt,value
2019-04-21T00:00:25.971Z,100919.75
2019-04-21T00:03:01.864Z,100922.42
2019-04-21T00:05:54.475Z,100920.03
2019-04-21T00:08:33.419Z,100911.92
2019-04-21T00:10:57.849Z,100910.22
2019-04-21T00:13:20.498Z,100906.91
2019-04-21T00:15:46.808Z,100913.14
2019-04-21T00:18:55.812Z,100907.23
2019-04-21T00:21:31.543Z,100898.30
2019-04-21T00:24:23.833Z,100899.32
2019-04-21T00:27:03.908Z,100894.58
2019-04-21T00:29:38.574Z,100898.53
2019-04-21T00:32:03.436Z,100895.63
2019-04-21T00:34:21.614Z,100897.56
2019-04-21T00:37:03.159Z,100894.53
2019-04-21T00:42:14.358Z,100890.24
2019-04-21T00:44:39.726Z,100893.05
2019-04-21T00:47:27.854Z,100885.91
2019-04-21T00:49:56.592Z,100885.08
2019-04-21T00:52:56.617Z,100881.51
2019-04-21T00:55:48.635Z,100878.84
2019-04-21T00:58:28.613Z,100870.76
2019-04-21T01:00:58.908Z,100869.60
2019-04-21T01:03:46.297Z,100867.67
2019-04-21T01:06:14.322Z,100861.97
2019-04-21T01:08:31.593Z,100861.02
2019-04-21T01:10:57.036Z,100854.24
2019-04-21T01:13:41.478Z,100859.86
2019-04-21T01:16:07.233Z,100853.02
2019-04-21T01:18:37.997Z,100855.84
2019-04-21T01:20:52.273Z,100856.56
2019-04-21T01:23:23.404Z,100853.67
2019-04-21T01:26:06.841Z,100857.42
2019-04-21T01:28:41.093Z,100857.17
2019-04-21T01:31:17.509Z,100849.77
2019-04-21T01:33:50.592Z,100855.14
2019-04-21T01:36:17.759Z,100849.59
2019-04-21T01:39:02.124Z,100852.61
2019-04-21T01:41:34.398Z,100845.09
2019-04-21T01:43:55.578Z,100838.55
2019-04-21T01:46:31.006Z,100833.00
2019-04-21T01:48:59.368Z,100834.19
2019-04-21T01:51:32.701Z,100832.12
2019-04-21T01:54:31.754Z,100831.27
2019-04-21T01:57:08.534Z,100828.50
2019-04-21T01:59:35.261Z,100827.89
2019-04-21T02:02:18.846Z,100824.26
2019-04-21T02:04:50.048Z,100830.06
2019-04-21T02:07:20.581Z,100829.83
2019-04-21T02:09:51.309Z,100827.64
2019-04-21T02:12:30.016Z,100825.34
2019-04-21T02:15:17.072Z,100823.39
2019-04-21T02:17:31.059Z,100818.44
2019-04-21T02:19:55.136Z,100813.47
2019-04-21T02:22:46.749Z,100821.09
2019-04-21T02:25:13.969Z,100817.95
2019-04-21T02:27:43.787Z,100816.75
2019-04-21T02:30:22.374Z,100813.59
2019-04-21T02:38:01.304Z,100807.75
2019-04-21T02:40:38.986Z,100805.34
2019-04-21T02:43:07.357Z,100797.94
2019-04-21T02:45:37.804Z,100799.15
2019-04-21T02:48:10.731Z,100804.94
2019-04-21T02:53:20.337Z,100801.84
2019-04-21T02:55:58.706Z,100794.44
2019-04-21T02:58:31.593Z,100794.53
2019-04-21T03:04:30.243Z,100790.16
2019-04-21T03:07:09.634Z,100798.14
2019-04-21T03:09:37.044Z,100788.45
2019-04-21T03:12:14.926Z,100785.62
2019-04-21T03:17:22.363Z,100775.72
2019-04-21T03:19:55.490Z,100776.05
2019-04-21T03:22:22.617Z,100780.16
2019-04-21T03:27:40.652Z,100778.59
2019-04-21T03:29:59.304Z,100769.66
2019-04-21T03:33:16.360Z,100767.25
2019-04-21T03:40:07.618Z,100765.98
2019-04-21T03:42:42.999Z,100770.64
2019-04-21T03:45:16.846Z,100760.28
2019-04-21T03:50:12.821Z,100764.22
2019-04-21T04:06:33.905Z,100760.04
2019-04-21T04:09:19.483Z,100756.30
2019-04-21T04:11:53.041Z,100756.36
2019-04-21T04:16:59.036Z,100759.27
2019-04-21T04:19:30.058Z,100753.84
2019-04-21T04:24:29.921Z,100760.83
2019-04-21T04:29:31.322Z,100759.78
2019-04-21T04:32:24.912Z,100759.50
2019-04-21T04:34:47.694Z,100756.38
2019-04-21T04:37:23.152Z,100752.41
2019-04-21T04:42:58.433Z,100757.42
2019-04-21T04:48:11.839Z,100748.31
2019-04-21T04:50:41.663Z,100746.98
2019-04-21T04:53:15.683Z,100746.98
2019-04-21T04:55:38.883Z,100743.59
2019-04-21T04:58:29.625Z,100751.73
2019-04-21T05:01:08.050Z,100748.95
2019-04-21T05:03:27.186Z,100749.53
2019-04-21T05:06:34.921Z,100745.34
2019-04-21T05:09:06.270Z,100749.83
2019-04-21T05:11:39.567Z,100747.63
2019-04-21T05:14:07.605Z,100743.93
2019-04-21T05:16:46.776Z,100742.73
2019-04-21T05:23:55.862Z,100746.02
2019-04-21T05:26:25.804Z,100739.02
2019-04-21T05:28:55.477Z,100741.55
2019-04-21T05:31:56.537Z,100744.12
2019-04-21T05:34:30.532Z,100739.99
2019-04-21T05:37:07.516Z,100738.06
2019-04-21T05:39:55.842Z,100738.20
2019-04-21T05:42:30.484Z,100733.81
2019-04-21T05:45:10.592Z,100741.07
2019-04-21T05:48:13.449Z,100736.11
2019-04-21T05:50:35.027Z,100741.16
2019-04-21T05:53:00.215Z,100729.29
2019-04-21T05:55:46.376Z,100731.33
2019-04-21T05:58:07.048Z,100730.48
2019-04-21T06:01:15.412Z,100729.42
2019-04-21T06:03:35.229Z,100722.13
2019-04-21T06:08:34.279Z,100721.81
2019-04-21T06:11:09.707Z,100717.13
2019-04-21T06:13:42.786Z,100711.28
2019-04-21T06:16:07.107Z,100710.09
2019-04-21T06:18:50.586Z,100707.05
2019-04-21T06:21:20.464Z,100703.86
2019-04-21T06:23:47.795Z,100707.67
2019-04-21T06:26:44.762Z,100703.81
2019-04-21T06:29:07.332Z,100702.88
2019-04-21T06:31:42.189Z,100697.70
2019-04-21T06:33:58.814Z,100698.95
2019-04-21T06:37:01.689Z,100699.00
2019-04-21T06:39:31.744Z,100695.83
2019-04-21T06:41:58.593Z,100692.39
2019-04-21T06:44:33.702Z,100699.14
2019-04-21T06:47:06.056Z,100693.80
2019-04-21T06:49:30.228Z,100695.78
2019-04-21T06:52:22.184Z,100688.00
2019-04-21T06:54:42.242Z,100687.77
2019-04-21T06:57:15.159Z,100686.69
2019-04-21T06:59:40.562Z,100683.75
2019-04-21T07:02:36.237Z,100683.69
2019-04-21T07:04:50.124Z,100683.97
2019-04-21T07:07:26.377Z,100686.67
2019-04-21T07:09:57.154Z,100689.91
2019-04-21T07:12:23.150Z,100683.68
2019-04-21T07:15:01.967Z,100687.03
2019-04-21T07:20:17.184Z,100688.64
2019-04-21T07:22:37.541Z,100685.38
2019-04-21T07:25:10.806Z,100685.09
2019-04-21T07:27:43.515Z,100683.16
2019-04-21T07:30:17.696Z,100685.61
2019-04-21T07:32:50.804Z,100676.28
2019-04-21T07:35:17.501Z,100676.09
2019-04-21T07:37:51.020Z,100678.84
2019-04-21T07:40:15.179Z,100678.06
2019-04-21T07:42:49.758Z,100678.32
2019-04-21T07:45:19.494Z,100676.84
2019-04-21T07:48:13.763Z,100676.23
2019-04-21T07:50:52.088Z,100674.44
2019-04-21T07:53:36.796Z,100672.78
2019-04-21T07:55:41.131Z,100672.14
2019-04-21T07:58:36.404Z,100676.52
2019-04-21T08:01:04.397Z,100671.59
2019-04-21T08:03:43.847Z,100666.34
2019-04-21T08:06:19.332Z,100668.14
2019-04-21T08:08:41.082Z,100661.22
2019-04-21T08:11:10.922Z,100662.85
2019-04-21T08:16:17.430Z,100662.19
2019-04-21T08:18:53.577Z,100660.20
2019-04-21T08:21:26.534Z,100657.70
2019-04-21T08:23:54.222Z,100656.73
2019-04-21T08:26:31.172Z,100656.45
2019-04-21T08:29:04.350Z,100655.95
2019-04-21T08:31:38.964Z,100658.08
2019-04-21T08:34:08.234Z,100647.69
2019-04-21T08:36:33.993Z,100643.23
2019-04-21T08:39:06.496Z,100647.09
2019-04-21T08:41:40.855Z,100649.16
2019-04-21T08:44:10.642Z,100647.17
2019-04-21T08:46:48.757Z,100646.14
2019-04-21T08:49:20.370Z,100642.23
2019-04-21T08:51:57.312Z,100635.55
2019-04-21T08:54:29.130Z,100635.55
2019-04-21T08:57:24.239Z,100643.40
2019-04-21T09:00:16.377Z,100638.50
2019-04-21T09:02:47.573Z,100636.66
2019-04-21T09:05:17.564Z,100630.25
2019-04-21T09:07:53.674Z,100631.94
2019-04-21T09:10:21.957Z,100629.58
2019-04-21T09:12:52.252Z,100618.80
2019-04-21T09:15:26.223Z,100616.70
2019-04-21T09:17:48.661Z,100617.45
2019-04-21T09:20:33.812Z,100608.62
2019-04-21T09:23:00.796Z,100609.05
2019-04-21T09:25:40.579Z,100614.95
2019-04-21T09:28:04.103Z,100616.26
2019-04-21T09:30:19.968Z,100608.62
2019-04-21T09:32:54.498Z,100599.86
2019-04-21T09:35:24.104Z,100603.36
2019-04-21T09:38:02.137Z,100588.30
2019-04-21T09:40:33.629Z,100588.49
2019-04-21T09:43:04.745Z,100591.17
2019-04-21T09:45:32.943Z,100585.59
2019-04-21T09:48:10.144Z,100581.20
2019-04-21T09:50:37.780Z,100576.37
2019-04-21T09:53:16.956Z,100573.50
2019-04-21T09:55:48.764Z,100578.22
2019-04-21T09:58:21.804Z,100570.83
2019-04-21T10:00:57.290Z,100574.16
2019-04-21T10:03:19.428Z,100571.19
2019-04-21T10:05:49.822Z,100569.70
2019-04-21T10:08:20.662Z,100571.13
2019-04-21T10:10:51.188Z,100564.61
2019-04-21T10:13:21.617Z,100552.98
2019-04-21T10:16:11.038Z,100555.94
2019-04-21T10:18:41.849Z,100551.16
2019-04-21T10:21:13.185Z,100549.52
2019-04-21T10:23:43.855Z,100541.77
2019-04-21T10:26:14.622Z,100542.27
2019-04-21T10:28:45.141Z,100537.75
2019-04-21T10:31:16.691Z,100531.03
2019-04-21T10:33:48.407Z,100531.95
2019-04-21T10:36:19.115Z,100522.95
2019-04-21T10:38:53.170Z,100522.50
2019-04-21T10:41:23.370Z,100519.89
2019-04-21T10:43:55.506Z,100515.95
2019-04-21T10:46:26.700Z,100511.77
2019-04-21T10:48:58.837Z,100516.52
2019-04-21T10:51:30.817Z,100506.89
2019-04-21T10:54:02.143Z,100499.81
2019-04-21T10:56:38.081Z,100498.73
2019-04-21T10:59:04.975Z,100490.41
2019-04-21T11:01:36.808Z,100492.31
2019-04-21T11:04:25.430Z,100493.42
2019-04-21T11:06:52.801Z,100483.77
2019-04-21T11:09:24.152Z,100480.84
2019-04-21T11:11:55.756Z,100480.13
2019-04-21T11:14:27.217Z,100484.97
2019-04-21T11:16:58.588Z,100475.58
2019-04-21T11:19:30.706Z,100471.50
2019-04-21T11:22:02.867Z,100469.77
2019-04-21T11:24:35.086Z,100464.94
2019-04-21T11:27:06.746Z,100465.40
2019-04-21T11:29:39.232Z,100459.41
2019-04-21T11:32:09.732Z,100455.62
2019-04-21T11:34:41.116Z,100456.00
2019-04-21T11:37:12.517Z,100448.97
2019-04-21T11:39:52.013Z,100445.46
2019-04-21T11:42:27.922Z,100442.59
2019-04-21T11:44:58.667Z,100444.41
2019-04-21T11:47:34.300Z,100438.95
2019-04-21T11:50:07.291Z,100434.77
2019-04-21T11:52:38.893Z,100434.25
2019-04-21T11:55:10.997Z,100430.89
2019-04-21T11:57:46.266Z,100430.36
2019-04-21T12:00:14.090Z,100429.61
2019-04-21T12:02:45.706Z,100427.28
2019-04-21T12:05:17.329Z,100423.36
2019-04-21T12:07:47.786Z,100426.22
2019-04-21T12:10:19.534Z,100416.42
2019-04-21T12:12:50.975Z,100415.45
2019-04-21T12:15:22.936Z,100410.11
2019-04-21T12:17:54.293Z,100405.50
2019-04-21T12:20:26.424Z,100402.39
2019-04-21T12:22:57.023Z,100398.84
2019-04-21T12:25:31.267Z,100392.16
2019-04-21T12:28:01.844Z,100388.19
2019-04-21T12:30:33.630Z,100389.11
2019-04-21T12:33:14.054Z,100381.09
2019-04-21T12:35:45.928Z,100387.13
2019-04-21T12:38:28.386Z,100372.36
2019-04-21T12:40:50.659Z,100367.83
2019-04-21T12:43:21.225Z,100362.36
2019-04-21T12:45:51.888Z,100364.81
2019-04-21T12:48:22.517Z,100358.38
2019-04-21T12:50:54.204Z,100361.61
2019-04-21T12:53:25.677Z,100356.35
2019-04-21T12:55:56.173Z,100353.17
2019-04-21T12:58:26.606Z,100349.40
2019-04-21T13:00:57.056Z,100342.24
2019-04-21T13:03:28.665Z,100342.61
2019-04-21T13:06:01.389Z,100331.68
2019-04-21T13:08:41.547Z,100328.52
2019-04-21T13:11:04.712Z,100322.00
2019-04-21T13:13:35.718Z,100318.13
2019-04-21T13:16:07.344Z,100319.72
2019-04-21T13:18:37.850Z,100308.36
2019-04-21T13:21:08.289Z,100303.43
2019-04-21T13:23:39.127Z,100303.90
2019-04-21T13:26:11.291Z,100295.30
2019-04-21T13:28:42.594Z,100295.56
2019-04-21T13:31:14.060Z,100295.34
2019-04-21T13:33:46.063Z,100294.06
2019-04-21T13:36:18.125Z,100288.62
2019-04-21T13:39:38.090Z,100290.57
2019-04-21T13:41:58.357Z,100278.27
2019-04-21T13:44:21.262Z,100275.05
2019-04-21T13:46:54.581Z,100278.95
2019-04-21T13:49:27.446Z,100280.45
2019-04-21T13:52:00.563Z,100271.55
2019-04-21T13:54:33.774Z,100260.56
2019-04-21T13:57:05.969Z,100264.11
2019-04-21T13:59:38.489Z,100264.72
2019-04-21T14:02:11.365Z,100257.70
2019-04-21T14:04:45.351Z,100262.42
2019-04-21T14:07:18.429Z,100257.49
2019-04-21T14:09:58.921Z,100245.97
2019-04-21T14:12:25.392Z,100245.48
2019-04-21T14:14:57.570Z,100239.95
2019-04-21T14:17:30.973Z,100238.28
2019-04-21T14:20:03.564Z,100237.98
2019-04-21T14:22:35.993Z,100230.84
2019-04-21T14:25:09.941Z,100232.33
2019-04-21T14:27:42.186Z,100225.78
2019-04-21T14:30:16.544Z,100225.11
2019-04-21T14:32:49.913Z,100225.11
2019-04-21T14:35:23.072Z,100226.87
2019-04-21T14:37:56.558Z,100223.03
2019-04-21T14:40:31.399Z,100217.21
2019-04-21T14:43:02.982Z,100213.47
2019-04-21T14:45:50.508Z,100205.85
2019-04-21T14:48:41.196Z,100209.87
2019-04-21T14:51:43.256Z,100199.94
2019-04-21T14:54:44.643Z,100200.92
2019-04-21T14:57:17.069Z,100197.55
2019-04-21T14:59:49.221Z,100194.51
2019-04-21T15:02:22.288Z,100195.05
2019-04-21T15:04:55.649Z,100195.36
2019-04-21T15:07:27.866Z,100193.45
2019-04-21T15:10:07.863Z,100185.96
2019-04-21T15:12:34.070Z,100186.94
2019-04-21T15:15:07.756Z,100181.99
2019-04-21T15:17:40.180Z,100183.70
2019-04-21T15:20:15.866Z,100178.49
2019-04-21T15:22:46.471Z,100168.02
2019-04-21T15:25:18.779Z,100168.06
2019-04-21T15:27:52.777Z,100170.48
2019-04-21T15:30:25.228Z,100166.13
2019-04-21T15:32:58.090Z,100160.55
2019-04-21T15:35:31.069Z,100155.20
2019-04-21T15:38:04.153Z,100157.27
2019-04-21T15:40:44.612Z,100152.64
2019-04-21T15:43:10.696Z,100148.80
2019-04-21T15:45:42.848Z,100151.86
2019-04-21T15:48:16.111Z,100153.88
2019-04-21T15:50:48.320Z,100147.70
2019-04-21T15:53:21.626Z,100148.69
2019-04-21T15:56:02.574Z,100154.38
2019-04-21T15:58:58.951Z,100146.26
2019-04-21T16:01:38.998Z,100148.25
2019-04-21T16:04:12.547Z,100136.16
2019-04-21T16:06:45.642Z,100138.64
2019-04-21T16:09:21.766Z,100132.53
2019-04-21T16:11:53.503Z,100131.84
2019-04-21T16:14:27.071Z,100126.02
2019-04-21T16:16:59.241Z,100131.10
2019-04-21T16:19:33.340Z,100122.78
2019-04-21T16:22:06.571Z,100121.42
2019-04-21T16:24:39.851Z,100124.11
2019-04-21T16:27:12.708Z,100113.50
2019-04-21T16:29:45.754Z,100108.59
2019-04-21T16:32:20.169Z,100112.45
2019-04-21T16:34:58.058Z,100113.80
2019-04-21T16:37:25.781Z,100116.36
2019-04-21T16:39:59.088Z,100115.77
2019-04-21T16:42:32.124Z,100110.59
2019-04-21T16:45:07.276Z,100108.16
2019-04-21T16:47:40.012Z,100105.59
2019-04-21T16:50:13.904Z,100106.05
2019-04-21T16:52:54.202Z,100107.02
2019-04-21T16:55:35.230Z,100108.60
2019-04-21T16:58:28.587Z,100102.00
2019-04-21T17:01:08.576Z,100099.62
2019-04-21T17:03:36.826Z,100098.83
2019-04-21T17:06:09.108Z,100091.64
2019-04-21T17:08:41.261Z,100088.44
2019-04-21T17:11:20.401Z,100090.19
2019-04-21T17:13:47.917Z,100090.25
2019-04-21T17:16:51.476Z,100091.43
2019-04-21T17:19:05.236Z,100089.13
2019-04-21T17:21:29.639Z,100088.08
2019-04-21T17:24:04.376Z,100091.98
2019-04-21T17:26:39.407Z,100092.21
2019-04-21T17:29:12.370Z,100088.41
2019-04-21T17:31:45.697Z,100086.41
2019-04-21T17:34:24.618Z,100084.77
2019-04-21T17:36:55.050Z,100087.07
2019-04-21T17:39:28.848Z,100085.17
2019-04-21T17:42:14.236Z,100085.62
2019-04-21T17:44:37.251Z,100092.38
2019-04-21T17:47:21.717Z,100087.45
2019-04-21T17:49:44.515Z,100076.87
2019-04-21T17:52:53.633Z,100073.02
2019-04-21T17:55:27.716Z,100075.64
2019-04-21T17:58:11.915Z,100075.88
2019-04-21T18:01:10.681Z,100070.45
2019-04-21T18:03:37.463Z,100068.05
2019-04-21T18:05:59.382Z,100078.19
2019-04-21T18:08:37.102Z,100078.11
2019-04-21T18:11:03.351Z,100074.06
2019-04-21T18:13:26.857Z,100073.75
2019-04-21T18:16:09.689Z,100074.59
2019-04-21T18:18:34.816Z,100082.61
2019-04-21T18:21:14.529Z,100076.80
2019-04-21T18:24:00.105Z,100082.70
2019-04-21T18:26:35.824Z,100084.38
2019-04-21T18:29:01.062Z,100079.36
2019-04-21T18:31:38.773Z,100080.50
2019-04-21T18:34:16.279Z,100080.00
2019-04-21T18:36:55.600Z,100082.81
2019-04-21T18:39:46.436Z,100083.00
2019-04-21T18:42:32.783Z,100072.91
2019-04-21T18:45:50.277Z,100080.70
2019-04-21T18:48:18.379Z,100080.05
2019-04-21T18:50:58.976Z,100080.05
2019-04-21T18:53:48.083Z,100082.84
2019-04-21T18:56:11.183Z,100082.29
2019-04-21T18:58:42.411Z,100082.22
2019-04-21T19:01:22.449Z,100089.40
2019-04-21T19:03:51.137Z,100086.14
2019-04-21T19:06:42.420Z,100090.22
2019-04-21T19:09:17.015Z,100088.30
2019-04-21T19:11:48.068Z,100092.65
2019-04-21T19:22:20.445Z,100094.91
2019-04-21T19:24:59.471Z,100093.76
2019-04-21T19:27:17.639Z,100095.08
2019-04-21T19:29:58.335Z,100097.98
2019-04-21T19:32:26.711Z,100096.55
2019-04-21T19:34:44.973Z,100094.70
2019-04-21T19:37:20.136Z,100095.08
2019-04-21T19:40:03.281Z,100089.06
2019-04-21T19:42:35.490Z,100087.26
2019-04-21T19:45:16.525Z,100087.22
2019-04-21T19:47:48.693Z,100093.44
2019-04-21T19:50:28.633Z,100086.55
2019-04-21T19:52:53.450Z,100088.51
2019-04-21T19:55:15.954Z,100079.77
2019-04-21T19:57:49.247Z,100083.37
2019-04-21T20:00:22.753Z,100079.59
2019-04-21T20:02:56.339Z,100082.81
2019-04-21T20:05:36.123Z,100082.36
2019-04-21T20:08:17.367Z,100074.83
2019-04-21T20:10:57.955Z,100071.25
2019-04-21T20:13:42.144Z,100071.38
2019-04-21T20:16:06.581Z,100070.03
2019-04-21T20:18:27.321Z,100070.73
2019-04-21T20:20:54.355Z,100072.14
2019-04-21T20:23:31.698Z,100073.66
2019-04-21T20:26:04.568Z,100066.71
2019-04-21T20:28:45.712Z,100066.64
2019-04-21T20:31:23.369Z,100065.74
2019-04-21T20:34:05.087Z,100064.27
2019-04-21T20:36:32.859Z,100055.48
2019-04-21T20:38:59.267Z,100057.61
2019-04-21T20:41:39.493Z,100053.16
2019-04-21T20:44:18.441Z,100057.45
2019-04-21T20:46:51.559Z,100062.12
2019-04-21T20:49:19.236Z,100053.41
2019-04-21T20:52:06.120Z,100057.18
2019-04-21T20:54:30.258Z,100054.70
2019-04-21T20:57:06.151Z,100050.85
2019-04-21T20:59:35.188Z,100052.12
2019-04-21T21:02:10.321Z,100044.34
2019-04-21T21:04:42.458Z,100046.09
2019-04-21T21:07:36.469Z,100044.27
2019-04-21T21:10:00.533Z,100048.36
2019-04-21T21:12:37.162Z,100044.99
2019-04-21T21:15:00.064Z,100040.19
2019-04-21T21:17:50.347Z,100046.83
2019-04-21T21:20:18.111Z,100044.61
2019-04-21T21:22:44.840Z,100049.80
2019-04-21T21:25:30.549Z,100047.06
2019-04-21T21:27:48.269Z,100045.73
2019-04-21T21:30:31.320Z,100045.47
2019-04-21T21:33:05.543Z,100043.31
2019-04-21T21:35:31.122Z,100048.27
2019-04-21T21:38:13.471Z,100047.86
2019-04-21T21:40:42.475Z,100046.14
2019-04-21T21:43:09.207Z,100046.19
2019-04-21T21:45:42.193Z,100049.47
2019-04-21T21:48:27.493Z,100049.05
2019-04-21T21:50:57.786Z,100046.41
2019-04-21T21:53:21.447Z,100045.80
2019-04-21T21:55:53.048Z,100045.80
2019-04-21T21:58:31.665Z,100040.27
2019-04-21T22:01:02.980Z,100040.45
2019-04-21T22:03:39.830Z,100040.17
2019-04-21T22:06:13.634Z,100036.30
2019-04-21T22:08:42.670Z,100030.31
2019-04-21T22:13:49.730Z,100023.13
2019-04-21T22:16:18.163Z,100035.30
2019-04-21T22:19:06.915Z,100035.48
2019-04-21T22:21:41.244Z,100038.33
2019-04-21T22:24:05.706Z,100039.22
2019-04-21T22:26:31.647Z,100039.56
2019-04-21T22:29:03.915Z,100034.69
2019-04-21T22:31:39.664Z,100032.69
2019-04-21T22:34:14.473Z,100032.38
2019-04-21T22:36:56.313Z,100032.72
2019-04-21T22:39:34.975Z,100029.41
2019-04-21T22:42:01.748Z,100031.43
2019-04-21T22:44:28.156Z,100026.09
2019-04-21T22:47:09.685Z,100030.14
2019-04-21T22:49:36.810Z,100029.67
2019-04-21T22:52:15.192Z,100027.17
2019-04-21T22:54:46.388Z,100027.31
2019-04-21T22:57:21.607Z,100028.34
2019-04-21T22:59:59.365Z,100029.20
2019-04-21T23:02:29.610Z,100026.19
2019-04-21T23:05:02.068Z,100022.16
2019-04-21T23:07:44.151Z,100024.16
2019-04-21T23:10:09.363Z,100025.69
2019-04-21T23:12:43.777Z,100019.16
2019-04-21T23:15:19.474Z,100023.67
2019-04-21T23:18:08.910Z,100028.04
2019-04-21T23:20:43.561Z,100027.88
2019-04-21T23:23:16.143Z,100026.70
2019-04-21T23:25:47.184Z,100026.38
2019-04-21T23:28:24.003Z,100026.58
2019-04-21T23:31:00.426Z,100020.54
2019-04-21T23:33:18.016Z,100019.86
2019-04-21T23:35:49.551Z,100021.55
2019-04-21T23:38:30.248Z,100020.22
2019-04-21T23:41:00.568Z,100018.36
2019-04-21T23:43:32.992Z,100012.32
2019-04-21T23:46:12.734Z,100017.68
2019-04-21T23:48:55.909Z,100011.09
2019-04-21T23:51:26.860Z,100011.26
2019-04-21T23:53:47.247Z,100009.92
2019-04-21T23:56:25.827Z,100011.25
2019-04-21T23:59:02.671Z,100009.57
